UAL Europe — MKVS6 — position and weather

sailwx.info

Track history (hours):
 
Tides and Currents Weather Stations Pressure Air Temp Water Temp Dewpoint Dewpoint Depression Visibility Wind Speed Wind Dir Waves Ship Positions

UAL Europe

Last reported at 2015-Feb-10 17:33 UTC. Time now 2015-Mar-03 15:05 UTC.
Position N 10°51' W 017°26'.
Warning: this ship's position is 20 days out of date.

Length 145 m; draft 5.5 m.

Type: Ship (hazmat cat A). MMSI: 235010190.

Date/timePositionNaut miles runAvg speedWind from/ knotsBaromVisibWave heightAir tempDewpointWater temp
2015-Feb-10 17:33N 10°51' W 017°26'1412.8
2015-Feb-10 16:29N 10°39' W 017°18'2612.8
2015-Feb-10 14:26N 10°17' W 017°05'2412.9
2015-Feb-10 12:33N 09°58' W 016°50'1613.2
2015-Feb-10 11:21N 09°45' W 016°39'1113.4
2015-Feb-10 10:33N 09°37' W 016°33'1313.3
2015-Feb-10 09:33N 09°27' W 016°24'2813.3
2015-Feb-10 07:28N 09°05' W 016°06'1213.1
2015-Feb-10 06:32N 08°55' W 015°59'1413.1
2015-Feb-10 05:27N 08°44' W 015°50'1213.3
2015-Feb-10 04:33N 08°35' W 015°42'1313.4
2015-Feb-10 03:33N 08°25' W 015°34'1413.7
2015-Feb-10 02:33N 08°14' W 015°25'1313.2
2015-Feb-10 01:33N 08°04' W 015°17'7213.5
2015-Feb-09 20:11N 07°07' W 014°31'813.3
2015-Feb-09 19:33N 07°02' W 014°25'  
Track history (hours):
 
Tides and Currents Weather Stations Pressure Air Temp Water Temp Dewpoint Dewpoint Depression Visibility Wind Speed Wind Dir Waves Ship Positions

UAL Europe

Last reported at 2015-Feb-10 17:33 UTC. Time now 2015-Mar-03 15:05 UTC.
Position N 10°51' W 017°26'.
Warning: this ship's position is 20 days out of date.

Length 145 m; draft 5.5 m.

Type: Ship (hazmat cat A). MMSI: 235010190.

Date/timePositionNaut miles runAvg speedWind from/ knotsBaromVisibWave heightAir tempDewpointWater temp
2015-Feb-10 17:33N 10°51' W 017°26'1412.8
2015-Feb-10 16:29N 10°39' W 017°18'2612.8
2015-Feb-10 14:26N 10°17' W 017°05'2412.9
2015-Feb-10 12:33N 09°58' W 016°50'1613.2
2015-Feb-10 11:21N 09°45' W 016°39'1113.4
2015-Feb-10 10:33N 09°37' W 016°33'1313.3
2015-Feb-10 09:33N 09°27' W 016°24'2813.3
2015-Feb-10 07:28N 09°05' W 016°06'1213.1
2015-Feb-10 06:32N 08°55' W 015°59'1413.1
2015-Feb-10 05:27N 08°44' W 015°50'1213.3
2015-Feb-10 04:33N 08°35' W 015°42'1313.4
2015-Feb-10 03:33N 08°25' W 015°34'1413.7
2015-Feb-10 02:33N 08°14' W 015°25'1313.2
2015-Feb-10 01:33N 08°04' W 015°17'7213.5
2015-Feb-09 20:11N 07°07' W 014°31'813.3
2015-Feb-09 19:33N 07°02' W 014°25'  

Dump ship's entire track history